sensor_id;sensor_type;location;lat;lon;timestamp;pressure;altitude;pressure_sealevel;temperature;humidity
23574;BME280;11965;53.640;10.050;2023-03-11T00:00:42;99697.81;;;0.01;100.00
23574;BME280;11965;53.640;10.050;2023-03-11T00:03:12;99701.91;;;0.05;100.00
23574;BME280;11965;53.640;10.050;2023-03-11T00:05:42;99702.88;;;-0.05;100.00
23574;BME280;11965;53.640;10.050;2023-03-11T00:08:12;99706.97;;;-0.01;100.00
23574;BME280;11965;53.640;10.050;2023-03-11T00:10:43;99718.34;;;0.13;100.00
23574;BME280;11965;53.640;10.050;2023-03-11T00:13:12;99715.53;;;0.05;100.00
23574;BME280;11965;53.640;10.050;2023-03-11T00:15:41;99731.03;;;0.04;100.00
23574;BME280;11965;53.640;10.050;2023-03-11T00:18:08;99741.00;;;-0.05;100.00
23574;BME280;11965;53.640;10.050;2023-03-11T00:20:37;99743.09;;;0.02;100.00
23574;BME280;11965;53.640;10.050;2023-03-11T00:23:07;99750.88;;;-0.04;100.00
23574;BME280;11965;53.640;10.050;2023-03-11T00:25:36;99751.72;;;-0.03;100.00
23574;BME280;11965;53.640;10.050;2023-03-11T00:28:05;99759.38;;;0.11;100.00
23574;BME280;11965;53.640;10.050;2023-03-11T00:30:35;99766.84;;;0.09;100.00
23574;BME280;11965;53.640;10.050;2023-03-11T00:33:02;99769.41;;;0.11;100.00
23574;BME280;11965;53.640;10.050;2023-03-11T00:35:32;99763.31;;;-0.01;100.00
23574;BME280;11965;53.640;10.050;2023-03-11T00:38:02;99775.88;;;0.10;100.00
23574;BME280;11965;53.640;10.050;2023-03-11T00:40:31;99783.88;;;-0.07;100.00
23574;BME280;11965;53.640;10.050;2023-03-11T00:43:02;99781.28;;;-0.08;100.00
23574;BME280;11965;53.640;10.050;2023-03-11T00:45:31;99782.69;;;-0.04;100.00
23574;BME280;11965;53.640;10.050;2023-03-11T00:47:58;99782.00;;;-0.06;100.00
23574;BME280;11965;53.640;10.050;2023-03-11T00:50:28;99785.03;;;-0.09;100.00
23574;BME280;11965;53.640;10.050;2023-03-11T00:52:57;99800.00;;;0.05;100.00
23574;BME280;11965;53.640;10.050;2023-03-11T00:55:26;99804.03;;;0.01;100.00
23574;BME280;11965;53.640;10.050;2023-03-11T00:57:56;99804.34;;;-0.03;100.00
23574;BME280;11965;53.640;10.050;2023-03-11T01:00:27;99814.41;;;0.15;100.00
23574;BME280;11965;53.640;10.050;2023-03-11T01:02:56;99821.16;;;0.11;100.00
23574;BME280;11965;53.640;10.050;2023-03-11T01:05:27;99821.66;;;0.06;100.00
23574;BME280;11965;53.640;10.050;2023-03-11T01:07:54;99826.91;;;0.08;100.00
23574;BME280;11965;53.640;10.050;2023-03-11T01:10:21;99830.34;;;0.10;100.00
23574;BME280;11965;53.640;10.050;2023-03-11T01:12:48;99834.25;;;0.07;100.00
23574;BME280;11965;53.640;10.050;2023-03-11T01:15:18;99833.84;;;0.02;100.00
23574;BME280;11965;53.640;10.050;2023-03-11T01:17:46;99842.00;;;0.02;100.00
23574;BME280;11965;53.640;10.050;2023-03-11T01:20:15;99843.44;;;0.06;100.00
23574;BME280;11965;53.640;10.050;2023-03-11T01:22:43;99843.13;;;0.09;100.00
23574;BME280;11965;53.640;10.050;2023-03-11T01:25:12;99850.03;;;0.04;100.00
23574;BME280;11965;53.640;10.050;2023-03-11T01:27:40;99859.41;;;-0.09;100.00
23574;BME280;11965;53.640;10.050;2023-03-11T01:30:09;99866.09;;;0.07;100.00
23574;BME280;11965;53.640;10.050;2023-03-11T01:32:38;99873.44;;;-0.04;100.00
23574;BME280;11965;53.640;10.050;2023-03-11T01:35:06;99868.50;;;-0.18;100.00
23574;BME280;11965;53.640;10.050;2023-03-11T01:37:34;99875.91;;;-0.10;100.00
23574;BME280;11965;53.640;10.050;2023-03-11T01:40:01;99885.97;;;-0.11;100.00
23574;BME280;11965;53.640;10.050;2023-03-11T01:42:28;99883.59;;;0.04;100.00
23574;BME280;11965;53.640;10.050;2023-03-11T01:44:55;99889.38;;;-0.09;100.00
23574;BME280;11965;53.640;10.050;2023-03-11T01:47:34;99890.00;;;0.13;100.00
23574;BME280;11965;53.640;10.050;2023-03-11T01:50:07;99889.75;;;0.06;100.00
23574;BME280;11965;53.640;10.050;2023-03-11T01:52:38;99888.94;;;-0.04;100.00
23574;BME280;11965;53.640;10.050;2023-03-11T01:55:07;99892.69;;;-0.05;100.00
23574;BME280;11965;53.640;10.050;2023-03-11T01:57:39;99899.72;;;-0.12;100.00
23574;BME280;11965;53.640;10.050;2023-03-11T02:00:10;99902.25;;;-0.01;100.00
23574;BME280;11965;53.640;10.050;2023-03-11T02:02:42;99899.53;;;-0.01;100.00
23574;BME280;11965;53.640;10.050;2023-03-11T02:05:12;99905.69;;;0.01;100.00
23574;BME280;11965;53.640;10.050;2023-03-11T02:07:40;99914.28;;;-0.04;100.00
23574;BME280;11965;53.640;10.050;2023-03-11T02:10:11;99908.00;;;-0.04;100.00
23574;BME280;11965;53.640;10.050;2023-03-11T02:12:39;99918.91;;;-0.04;100.00
23574;BME280;11965;53.640;10.050;2023-03-11T02:15:09;99917.59;;;0.00;100.00
23574;BME280;11965;53.640;10.050;2023-03-11T02:17:37;99921.06;;;-0.08;100.00
23574;BME280;11965;53.640;10.050;2023-03-11T02:20:26;99923.69;;;-0.16;100.00
23574;BME280;11965;53.640;10.050;2023-03-11T02:23:01;99939.84;;;-0.14;100.00
23574;BME280;11965;53.640;10.050;2023-03-11T02:25:35;99943.72;;;-0.07;100.00
23574;BME280;11965;53.640;10.050;2023-03-11T02:28:11;99948.84;;;-0.04;100.00
23574;BME280;11965;53.640;10.050;2023-03-11T02:30:41;99951.81;;;0.03;100.00
23574;BME280;11965;53.640;10.050;2023-03-11T02:33:12;99955.16;;;-0.04;100.00
23574;BME280;11965;53.640;10.050;2023-03-11T02:35:40;99966.66;;;-0.10;100.00
23574;BME280;11965;53.640;10.050;2023-03-11T02:38:07;99975.56;;;-0.17;100.00
23574;BME280;11965;53.640;10.050;2023-03-11T02:40:43;99979.84;;;-0.15;100.00
23574;BME280;11965;53.640;10.050;2023-03-11T02:43:18;99986.75;;;-0.11;100.00
23574;BME280;11965;53.640;10.050;2023-03-11T02:45:48;99999.34;;;-0.10;100.00
23574;BME280;11965;53.640;10.050;2023-03-11T02:48:17;99995.63;;;-0.18;100.00
23574;BME280;11965;53.640;10.050;2023-03-11T02:50:46;99997.50;;;-0.29;100.00
23574;BME280;11965;53.640;10.050;2023-03-11T02:53:14;100007.38;;;-0.28;100.00
23574;BME280;11965;53.640;10.050;2023-03-11T02:55:41;100016.53;;;-0.19;100.00
23574;BME280;11965;53.640;10.050;2023-03-11T02:58:08;100023.44;;;-0.15;100.00
23574;BME280;11965;53.640;10.050;2023-03-11T03:00:37;100016.28;;;-0.26;100.00
23574;BME280;11965;53.640;10.050;2023-03-11T03:03:06;100025.59;;;-0.18;100.00
23574;BME280;11965;53.640;10.050;2023-03-11T03:05:33;100027.44;;;-0.19;100.00
23574;BME280;11965;53.640;10.050;2023-03-11T03:08:01;100035.75;;;-0.20;100.00
23574;BME280;11965;53.640;10.050;2023-03-11T03:10:28;100039.22;;;-0.18;100.00
23574;BME280;11965;53.640;10.050;2023-03-11T03:12:56;100033.03;;;-0.11;100.00
23574;BME280;11965;53.640;10.050;2023-03-11T03:15:24;100041.34;;;-0.22;100.00
23574;BME280;11965;53.640;10.050;2023-03-11T03:17:52;100050.22;;;-0.20;100.00
23574;BME280;11965;53.640;10.050;2023-03-11T03:20:19;100050.66;;;-0.15;100.00
23574;BME280;11965;53.640;10.050;2023-03-11T03:22:49;100053.09;;;-0.12;100.00
23574;BME280;11965;53.640;10.050;2023-03-11T03:25:19;100060.09;;;-0.19;100.00
23574;BME280;11965;53.640;10.050;2023-03-11T03:27:47;100067.16;;;-0.26;100.00
23574;BME280;11965;53.640;10.050;2023-03-11T03:30:15;100071.00;;;-0.19;100.00
23574;BME280;11965;53.640;10.050;2023-03-11T03:32:42;100068.28;;;-0.09;100.00
23574;BME280;11965;53.640;10.050;2023-03-11T03:35:15;100077.19;;;-0.27;100.00
23574;BME280;11965;53.640;10.050;2023-03-11T03:38:04;100082.78;;;-0.28;100.00
23574;BME280;11965;53.640;10.050;2023-03-11T03:40:31;100087.06;;;-0.35;100.00
23574;BME280;11965;53.640;10.050;2023-03-11T03:43:02;100085.22;;;-0.25;100.00
23574;BME280;11965;53.640;10.050;2023-03-11T03:45:30;100094.38;;;-0.16;100.00
23574;BME280;11965;53.640;10.050;2023-03-11T03:47:57;100091.53;;;-0.34;100.00
23574;BME280;11965;53.640;10.050;2023-03-11T03:50:27;100108.44;;;-0.21;100.00
23574;BME280;11965;53.640;10.050;2023-03-11T03:52:55;100110.72;;;-0.16;100.00
23574;BME280;11965;53.640;10.050;2023-03-11T03:55:23;100114.88;;;-0.22;100.00
23574;BME280;11965;53.640;10.050;2023-03-11T03:57:51;100126.75;;;-0.33;100.00
23574;BME280;11965;53.640;10.050;2023-03-11T04:00:20;100119.47;;;-0.13;100.00
23574;BME280;11965;53.640;10.050;2023-03-11T04:02:54;100115.44;;;-0.28;100.00
23574;BME280;11965;53.640;10.050;2023-03-11T04:05:30;100124.06;;;-0.23;100.00
23574;BME280;11965;53.640;10.050;2023-03-11T04:07:57;100124.50;;;-0.18;100.00
23574;BME280;11965;53.640;10.050;2023-03-11T04:10:26;100134.53;;;-0.18;100.00
23574;BME280;11965;53.640;10.050;2023-03-11T04:12:53;100127.78;;;-0.34;100.00
23574;BME280;11965;53.640;10.050;2023-03-11T04:15:20;100129.78;;;-0.26;100.00
23574;BME280;11965;53.640;10.050;2023-03-11T04:17:47;100133.06;;;-0.23;100.00
23574;BME280;11965;53.640;10.050;2023-03-11T04:20:15;100142.97;;;-0.12;100.00
23574;BME280;11965;53.640;10.050;2023-03-11T04:22:46;100133.94;;;-0.22;100.00
23574;BME280;11965;53.640;10.050;2023-03-11T04:25:14;100132.66;;;-0.18;100.00
23574;BME280;11965;53.640;10.050;2023-03-11T04:27:41;100135.38;;;-0.18;100.00
23574;BME280;11965;53.640;10.050;2023-03-11T04:30:11;100142.38;;;-0.25;100.00
23574;BME280;11965;53.640;10.050;2023-03-11T04:32:38;100140.97;;;-0.19;100.00
23574;BME280;11965;53.640;10.050;2023-03-11T04:35:06;100147.41;;;-0.40;100.00
23574;BME280;11965;53.640;10.050;2023-03-11T04:37:33;100146.38;;;-0.49;100.00
23574;BME280;11965;53.640;10.050;2023-03-11T04:40:02;100146.94;;;-0.55;100.00
23574;BME280;11965;53.640;10.050;2023-03-11T04:42:30;100147.34;;;-0.59;100.00
23574;BME280;11965;53.640;10.050;2023-03-11T04:44:57;100151.97;;;-0.40;100.00
23574;BME280;11965;53.640;10.050;2023-03-11T04:47:26;100162.69;;;-0.58;100.00
23574;BME280;11965;53.640;10.050;2023-03-11T04:49:53;100168.44;;;-0.61;100.00
23574;BME280;11965;53.640;10.050;2023-03-11T04:52:21;100166.84;;;-0.54;100.00
23574;BME280;11965;53.640;10.050;2023-03-11T04:54:48;100164.97;;;-0.63;100.00
23574;BME280;11965;53.640;10.050;2023-03-11T04:57:17;100169.44;;;-0.53;100.00
23574;BME280;11965;53.640;10.050;2023-03-11T04:59:44;100164.41;;;-0.57;100.00
23574;BME280;11965;53.640;10.050;2023-03-11T05:02:13;100171.53;;;-0.76;100.00
23574;BME280;11965;53.640;10.050;2023-03-11T05:04:47;100189.25;;;-0.81;100.00
23574;BME280;11965;53.640;10.050;2023-03-11T05:07:14;100191.97;;;-0.81;100.00
23574;BME280;11965;53.640;10.050;2023-03-11T05:09:42;100198.56;;;-0.84;100.00
23574;BME280;11965;53.640;10.050;2023-03-11T05:12:11;100203.03;;;-0.83;100.00
23574;BME280;11965;53.640;10.050;2023-03-11T05:14:40;100211.88;;;-0.91;100.00
23574;BME280;11965;53.640;10.050;2023-03-11T05:17:07;100216.97;;;-0.97;100.00
23574;BME280;11965;53.640;10.050;2023-03-11T05:19:37;100223.72;;;-0.92;100.00
23574;BME280;11965;53.640;10.050;2023-03-11T05:22:16;100225.81;;;-1.05;100.00
23574;BME280;11965;53.640;10.050;2023-03-11T05:24:43;100234.13;;;-1.06;100.00
23574;BME280;11965;53.640;10.050;2023-03-11T05:27:12;100238.22;;;-0.91;100.00
23574;BME280;11965;53.640;10.050;2023-03-11T05:29:45;100243.28;;;-1.07;100.00
23574;BME280;11965;53.640;10.050;2023-03-11T05:32:13;100248.06;;;-1.21;100.00
23574;BME280;11965;53.640;10.050;2023-03-11T05:34:41;100253.72;;;-1.03;100.00
23574;BME280;11965;53.640;10.050;2023-03-11T05:37:08;100254.63;;;-1.23;100.00
23574;BME280;11965;53.640;10.050;2023-03-11T05:39:35;100258.31;;;-1.24;100.00
23574;BME280;11965;53.640;10.050;2023-03-11T05:42:03;100264.50;;;-1.22;100.00
23574;BME280;11965;53.640;10.050;2023-03-11T05:44:31;100274.66;;;-1.24;100.00
23574;BME280;11965;53.640;10.050;2023-03-11T05:46:59;100271.47;;;-1.29;100.00
23574;BME280;11965;53.640;10.050;2023-03-11T05:49:27;100273.31;;;-1.30;100.00
23574;BME280;11965;53.640;10.050;2023-03-11T05:51:54;100278.75;;;-1.51;100.00
23574;BME280;11965;53.640;10.050;2023-03-11T05:54:23;100284.81;;;-1.47;100.00
23574;BME280;11965;53.640;10.050;2023-03-11T05:56:51;100291.78;;;-1.66;100.00
23574;BME280;11965;53.640;10.050;2023-03-11T05:59:18;100291.59;;;-1.74;100.00
23574;BME280;11965;53.640;10.050;2023-03-11T06:01:52;100292.53;;;-1.43;100.00
23574;BME280;11965;53.640;10.050;2023-03-11T06:04:22;100289.59;;;-1.40;100.00
23574;BME280;11965;53.640;10.050;2023-03-11T06:06:49;100294.13;;;-1.40;100.00
23574;BME280;11965;53.640;10.050;2023-03-11T06:09:19;100298.94;;;-1.65;100.00
23574;BME280;11965;53.640;10.050;2023-03-11T06:11:46;100295.25;;;-1.64;100.00
23574;BME280;11965;53.640;10.050;2023-03-11T06:14:15;100304.63;;;-1.68;100.00
23574;BME280;11965;53.640;10.050;2023-03-11T06:16:44;100302.94;;;-1.80;100.00
23574;BME280;11965;53.640;10.050;2023-03-11T06:19:12;100305.31;;;-1.87;100.00
23574;BME280;11965;53.640;10.050;2023-03-11T06:21:44;100324.00;;;-1.93;100.00
23574;BME280;11965;53.640;10.050;2023-03-11T06:24:11;100318.31;;;-2.02;100.00
23574;BME280;11965;53.640;10.050;2023-03-11T06:26:39;100328.09;;;-2.10;100.00
23574;BME280;11965;53.640;10.050;2023-03-11T06:29:11;100331.91;;;-2.13;100.00
23574;BME280;11965;53.640;10.050;2023-03-11T06:31:40;100335.38;;;-2.11;100.00
23574;BME280;11965;53.640;10.050;2023-03-11T06:34:10;100334.88;;;-2.16;100.00
23574;BME280;11965;53.640;10.050;2023-03-11T06:36:37;100348.59;;;-2.17;100.00
23574;BME280;11965;53.640;10.050;2023-03-11T06:39:06;100347.22;;;-2.12;100.00
23574;BME280;11965;53.640;10.050;2023-03-11T06:41:35;100355.97;;;-2.08;100.00
23574;BME280;11965;53.640;10.050;2023-03-11T06:44:04;100352.75;;;-2.02;100.00
23574;BME280;11965;53.640;10.050;2023-03-11T06:46:32;100364.09;;;-1.97;100.00
23574;BME280;11965;53.640;10.050;2023-03-11T06:48:59;100369.41;;;-1.95;100.00
23574;BME280;11965;53.640;10.050;2023-03-11T06:51:27;100372.88;;;-1.93;100.00
23574;BME280;11965;53.640;10.050;2023-03-11T06:53:54;100379.66;;;-1.88;100.00
23574;BME280;11965;53.640;10.050;2023-03-11T06:56:24;100383.09;;;-1.74;100.00
23574;BME280;11965;53.640;10.050;2023-03-11T06:58:56;100385.78;;;-1.63;100.00
23574;BME280;11965;53.640;10.050;2023-03-11T07:01:27;100389.69;;;-1.56;100.00
23574;BME280;11965;53.640;10.050;2023-03-11T07:03:55;100383.38;;;-1.57;100.00
23574;BME280;11965;53.640;10.050;2023-03-11T07:06:25;100393.63;;;-1.49;100.00
23574;BME280;11965;53.640;10.050;2023-03-11T07:08:59;100391.66;;;-1.47;100.00
23574;BME280;11965;53.640;10.050;2023-03-11T07:11:27;100399.88;;;-1.37;100.00
23574;BME280;11965;53.640;10.050;2023-03-11T07:14:05;100401.88;;;-1.39;100.00
23574;BME280;11965;53.640;10.050;2023-03-11T07:16:38;100407.69;;;-1.44;100.00
23574;BME280;11965;53.640;10.050;2023-03-11T07:19:11;100404.66;;;-1.50;100.00
23574;BME280;11965;53.640;10.050;2023-03-11T07:21:39;100413.41;;;-1.47;100.00
23574;BME280;11965;53.640;10.050;2023-03-11T07:24:06;100415.22;;;-1.36;100.00
23574;BME280;11965;53.640;10.050;2023-03-11T07:26:35;100413.63;;;-1.39;100.00
23574;BME280;11965;53.640;10.050;2023-03-11T07:29:02;100419.53;;;-1.34;100.00
23574;BME280;11965;53.640;10.050;2023-03-11T07:31:31;100427.03;;;-1.26;100.00
23574;BME280;11965;53.640;10.050;2023-03-11T07:34:01;100425.50;;;-1.07;100.00
23574;BME280;11965;53.640;10.050;2023-03-11T07:36:28;100428.97;;;-1.17;100.00
23574;BME280;11965;53.640;10.050;2023-03-11T07:38:56;100435.22;;;-1.26;100.00
23574;BME280;11965;53.640;10.050;2023-03-11T07:41:25;100432.81;;;-1.19;100.00
23574;BME280;11965;53.640;10.050;2023-03-11T07:43:56;100435.09;;;-1.03;100.00
23574;BME280;11965;53.640;10.050;2023-03-11T07:46:24;100445.34;;;-0.96;100.00
23574;BME280;11965;53.640;10.050;2023-03-11T07:48:52;100448.16;;;-0.86;100.00
23574;BME280;11965;53.640;10.050;2023-03-11T07:51:21;100460.75;;;-0.85;100.00
23574;BME280;11965;53.640;10.050;2023-03-11T07:53:50;100470.72;;;-0.74;100.00
23574;BME280;11965;53.640;10.050;2023-03-11T07:56:19;100470.44;;;-0.71;100.00
23574;BME280;11965;53.640;10.050;2023-03-11T07:58:47;100465.91;;;-0.82;100.00
23574;BME280;11965;53.640;10.050;2023-03-11T08:01:18;100476.94;;;-0.83;100.00
23574;BME280;11965;53.640;10.050;2023-03-11T08:03:47;100475.56;;;-0.78;100.00
23574;BME280;11965;53.640;10.050;2023-03-11T08:06:18;100478.53;;;-0.81;100.00
23574;BME280;11965;53.640;10.050;2023-03-11T08:08:46;100484.13;;;-0.82;100.00
23574;BME280;11965;53.640;10.050;2023-03-11T08:11:13;100488.75;;;-0.73;100.00
23574;BME280;11965;53.640;10.050;2023-03-11T08:13:42;100483.69;;;-0.67;100.00
23574;BME280;11965;53.640;10.050;2023-03-11T08:16:11;100490.06;;;-0.56;100.00
23574;BME280;11965;53.640;10.050;2023-03-11T08:18:40;100495.50;;;-0.56;100.00
23574;BME280;11965;53.640;10.050;2023-03-11T08:21:11;100516.06;;;-0.63;100.00
23574;BME280;11965;53.640;10.050;2023-03-11T08:23:38;100515.91;;;-0.62;100.00
23574;BME280;11965;53.640;10.050;2023-03-11T08:26:07;100522.72;;;-0.35;100.00
23574;BME280;11965;53.640;10.050;2023-03-11T08:28:35;100521.06;;;-0.48;100.00
23574;BME280;11965;53.640;10.050;2023-03-11T08:31:11;100528.69;;;-0.41;100.00
23574;BME280;11965;53.640;10.050;2023-03-11T08:33:39;100531.78;;;-0.35;100.00
23574;BME280;11965;53.640;10.050;2023-03-11T08:36:06;100527.44;;;-0.37;100.00
23574;BME280;11965;53.640;10.050;2023-03-11T08:38:33;100532.22;;;-0.30;100.00
23574;BME280;11965;53.640;10.050;2023-03-11T08:41:00;100536.78;;;-0.30;100.00
23574;BME280;11965;53.640;10.050;2023-03-11T08:43:27;100543.38;;;-0.33;100.00
23574;BME280;11965;53.640;10.050;2023-03-11T08:45:54;100546.44;;;-0.26;100.00
23574;BME280;11965;53.640;10.050;2023-03-11T08:48:21;100556.22;;;-0.24;100.00
23574;BME280;11965;53.640;10.050;2023-03-11T08:50:51;100557.34;;;-0.26;100.00
23574;BME280;11965;53.640;10.050;2023-03-11T08:53:18;100552.00;;;-0.28;100.00
23574;BME280;11965;53.640;10.050;2023-03-11T08:55:44;100557.66;;;-0.19;100.00
23574;BME280;11965;53.640;10.050;2023-03-11T08:58:11;100560.81;;;-0.24;100.00
23574;BME280;11965;53.640;10.050;2023-03-11T09:00:38;100561.97;;;-0.17;100.00
23574;BME280;11965;53.640;10.050;2023-03-11T09:03:05;100569.66;;;-0.11;100.00
23574;BME280;11965;53.640;10.050;2023-03-11T09:05:32;100572.38;;;-0.11;100.00
23574;BME280;11965;53.640;10.050;2023-03-11T09:08:00;100572.38;;;-0.11;100.00
23574;BME280;11965;53.640;10.050;2023-03-11T09:10:28;100568.84;;;-0.02;100.00
23574;BME280;11965;53.640;10.050;2023-03-11T09:12:55;100569.41;;;0.02;100.00
23574;BME280;11965;53.640;10.050;2023-03-11T09:15:22;100567.13;;;-0.03;100.00
23574;BME280;11965;53.640;10.050;2023-03-11T09:17:48;100572.03;;;0.04;100.00
23574;BME280;11965;53.640;10.050;2023-03-11T09:20:17;100578.22;;;0.06;100.00
23574;BME280;11965;53.640;10.050;2023-03-11T09:22:47;100574.00;;;0.02;100.00
23574;BME280;11965;53.640;10.050;2023-03-11T09:25:15;100582.91;;;0.04;100.00
23574;BME280;11965;53.640;10.050;2023-03-11T09:27:42;100588.09;;;0.07;100.00
23574;BME280;11965;53.640;10.050;2023-03-11T09:30:10;100588.38;;;0.04;100.00
23574;BME280;11965;53.640;10.050;2023-03-11T09:32:37;100584.31;;;0.19;100.00
23574;BME280;11965;53.640;10.050;2023-03-11T09:35:05;100592.22;;;0.22;100.00
23574;BME280;11965;53.640;10.050;2023-03-11T09:37:31;100592.63;;;0.17;100.00
23574;BME280;11965;53.640;10.050;2023-03-11T09:39:58;100594.00;;;0.12;100.00
23574;BME280;11965;53.640;10.050;2023-03-11T09:42:36;100591.75;;;0.17;100.00
23574;BME280;11965;53.640;10.050;2023-03-11T09:45:15;100604.44;;;0.07;100.00
23574;BME280;11965;53.640;10.050;2023-03-11T09:48:00;100603.72;;;0.05;100.00
23574;BME280;11965;53.640;10.050;2023-03-11T09:50:30;100608.88;;;0.08;100.00
23574;BME280;11965;53.640;10.050;2023-03-11T09:53:08;100597.84;;;0.30;100.00
23574;BME280;11965;53.640;10.050;2023-03-11T09:55:43;100596.06;;;0.19;100.00
23574;BME280;11965;53.640;10.050;2023-03-11T09:58:21;100591.75;;;0.17;100.00
23574;BME280;11965;53.640;10.050;2023-03-11T10:00:52;100609.03;;;0.27;100.00
23574;BME280;11965;53.640;10.050;2023-03-11T10:03:28;100601.38;;;0.21;100.00
23574;BME280;11965;53.640;10.050;2023-03-11T10:06:07;100606.91;;;0.31;100.00
23574;BME280;11965;53.640;10.050;2023-03-11T10:08:43;100606.44;;;0.26;100.00
23574;BME280;11965;53.640;10.050;2023-03-11T10:11:28;100618.59;;;0.21;100.00
23574;BME280;11965;53.640;10.050;2023-03-11T10:14:14;100623.44;;;0.18;100.00
23574;BME280;11965;53.640;10.050;2023-03-11T10:16:58;100622.72;;;0.37;100.00
23574;BME280;11965;53.640;10.050;2023-03-11T10:19:37;100623.84;;;0.34;100.00
23574;BME280;11965;53.640;10.050;2023-03-11T10:22:15;100626.75;;;0.42;100.00
23574;BME280;11965;53.640;10.050;2023-03-11T10:25:02;100623.72;;;0.36;100.00
23574;BME280;11965;53.640;10.050;2023-03-11T10:27:38;100617.72;;;0.42;100.00
23574;BME280;11965;53.640;10.050;2023-03-11T10:30:19;100612.25;;;0.42;100.00
23574;BME280;11965;53.640;10.050;2023-03-11T10:32:54;100630.31;;;0.33;100.00
23574;BME280;11965;53.640;10.050;2023-03-11T10:35:28;100628.91;;;0.39;100.00
23574;BME280;11965;53.640;10.050;2023-03-11T10:38:04;100626.09;;;0.50;100.00
23574;BME280;11965;53.640;10.050;2023-03-11T10:40:35;100618.31;;;0.46;100.00
23574;BME280;11965;53.640;10.050;2023-03-11T10:43:12;100620.69;;;0.60;100.00
23574;BME280;11965;53.640;10.050;2023-03-11T10:45:43;100628.91;;;0.70;100.00
23574;BME280;11965;53.640;10.050;2023-03-11T10:48:14;100622.28;;;0.62;100.00
23574;BME280;11965;53.640;10.050;2023-03-11T10:50:48;100629.16;;;0.57;100.00
23574;BME280;11965;53.640;10.050;2023-03-11T10:53:18;100629.16;;;0.57;100.00
23574;BME280;11965;53.640;10.050;2023-03-11T10:55:48;100632.75;;;0.67;100.00
23574;BME280;11965;53.640;10.050;2023-03-11T10:58:18;100629.41;;;0.84;100.00
23574;BME280;11965;53.640;10.050;2023-03-11T11:00:58;100631.78;;;0.68;100.00
23574;BME280;11965;53.640;10.050;2023-03-11T11:03:25;100629.81;;;0.80;100.00
23574;BME280;11965;53.640;10.050;2023-03-11T11:06:01;100625.66;;;0.85;100.00
23574;BME280;11965;53.640;10.050;2023-03-11T11:08:29;100625.31;;;1.00;100.00
23574;BME280;11965;53.640;10.050;2023-03-11T11:10:58;100630.94;;;1.08;100.00
23574;BME280;11965;53.640;10.050;2023-03-11T11:13:28;100631.34;;;1.03;100.00
23574;BME280;11965;53.640;10.050;2023-03-11T11:15:59;100624.88;;;0.95;100.00
23574;BME280;11965;53.640;10.050;2023-03-11T11:18:30;100624.19;;;1.02;100.00
23574;BME280;11965;53.640;10.050;2023-03-11T11:21:02;100625.31;;;1.00;100.00
23574;BME280;11965;53.640;10.050;2023-03-11T11:23:37;100625.75;;;1.05;100.00
23574;BME280;11965;53.640;10.050;2023-03-11T11:26:07;100626.63;;;1.05;100.00
23574;BME280;11965;53.640;10.050;2023-03-11T11:28:39;100624.75;;;1.06;100.00
23574;BME280;11965;53.640;10.050;2023-03-11T11:31:22;100624.78;;;1.16;100.00
23574;BME280;11965;53.640;10.050;2023-03-11T11:33:51;100621.75;;;1.09;100.00
23574;BME280;11965;53.640;10.050;2023-03-11T11:36:22;100628.22;;;1.08;100.00
23574;BME280;11965;53.640;10.050;2023-03-11T11:38:52;100624.47;;;1.09;100.00
23574;BME280;11965;53.640;10.050;2023-03-11T11:41:21;100623.38;;;1.21;100.00
23574;BME280;11965;53.640;10.050;2023-03-11T11:43:51;100616.16;;;1.20;100.00
23574;BME280;11965;53.640;10.050;2023-03-11T11:46:24;100615.47;;;1.28;100.00
23574;BME280;11965;53.640;10.050;2023-03-11T11:49:04;100611.59;;;1.30;100.00
23574;BME280;11965;53.640;10.050;2023-03-11T11:51:37;100624.25;;;1.41;100.00
23574;BME280;11965;53.640;10.050;2023-03-11T11:54:14;100609.88;;;1.39;100.00
23574;BME280;11965;53.640;10.050;2023-03-11T11:56:42;100612.75;;;1.38;100.00
23574;BME280;11965;53.640;10.050;2023-03-11T11:59:15;100619.94;;;1.39;100.00
23574;BME280;11965;53.640;10.050;2023-03-11T12:01:54;100613.22;;;1.43;100.00
23574;BME280;11965;53.640;10.050;2023-03-11T12:04:52;100615.38;;;1.49;100.00
23574;BME280;11965;53.640;10.050;2023-03-11T12:07:31;100616.31;;;1.28;100.00
23574;BME280;11965;53.640;10.050;2023-03-11T12:10:19;100617.94;;;1.50;100.00
23574;BME280;11965;53.640;10.050;2023-03-11T12:13:00;100615.06;;;1.42;100.00
23574;BME280;11965;53.640;10.050;2023-03-11T12:15:38;100597.81;;;1.61;100.00
23574;BME280;11965;53.640;10.050;2023-03-11T12:18:16;100610.47;;;1.72;100.00
23574;BME280;11965;53.640;10.050;2023-03-11T12:20:51;100603.44;;;1.89;100.00
23574;BME280;11965;53.640;10.050;2023-03-11T12:23:31;100600.69;;;2.18;100.00
23574;BME280;11965;53.640;10.050;2023-03-11T12:26:13;100597.88;;;2.84;100.00
23574;BME280;11965;53.640;10.050;2023-03-11T12:28:47;100588.59;;;2.95;100.00
23574;BME280;11965;53.640;10.050;2023-03-11T12:31:16;100588.78;;;2.94;100.00
23574;BME280;11965;53.640;10.050;2023-03-11T12:33:48;100587.63;;;2.86;100.00
23574;BME280;11965;53.640;10.050;2023-03-11T12:36:27;100589.00;;;2.73;100.00
23574;BME280;11965;53.640;10.050;2023-03-11T12:38:56;100594.06;;;2.68;100.00
23574;BME280;11965;53.640;10.050;2023-03-11T12:41:31;100592.81;;;2.52;100.00
23574;BME280;11965;53.640;10.050;2023-03-11T12:44:22;100590.78;;;2.64;100.00
23574;BME280;11965;53.640;10.050;2023-03-11T12:47:17;100593.06;;;2.96;100.00
23574;BME280;11965;53.640;10.050;2023-03-11T12:49:48;100590.88;;;3.27;100.00
23574;BME280;11965;53.640;10.050;2023-03-11T12:52:22;100594.19;;;3.49;100.00